sensor_id;sensor_type;location;lat;lon;timestamp;pressure;altitude;pressure_sealevel;temperature;humidity
7264;BME280;3673;52.480;13.348;2022-10-13T00:00:56;101762.06;;;14.33;52.76
7264;BME280;3673;52.480;13.348;2022-10-13T00:03:22;101762.91;;;14.32;52.82
7264;BME280;3673;52.480;13.348;2022-10-13T00:05:50;101753.28;;;14.26;52.95
7264;BME280;3673;52.480;13.348;2022-10-13T00:08:20;101750.66;;;14.29;53.17
7264;BME280;3673;52.480;13.348;2022-10-13T00:10:50;101751.53;;;14.27;52.98
7264;BME280;3673;52.480;13.348;2022-10-13T00:13:18;101756.78;;;14.19;52.78
7264;BME280;3673;52.480;13.348;2022-10-13T00:15:46;101757.66;;;14.17;52.94
7264;BME280;3673;52.480;13.348;2022-10-13T00:18:14;101756.78;;;14.12;53.43
7264;BME280;3673;52.480;13.348;2022-10-13T00:20:42;101753.25;;;14.19;53.15
7264;BME280;3673;52.480;13.348;2022-10-13T00:23:09;101746.25;;;14.04;53.27
7264;BME280;3673;52.480;13.348;2022-10-13T00:25:40;101750.63;;;13.99;53.64
7264;BME280;3673;52.480;13.348;2022-10-13T00:28:10;101744.50;;;14.09;53.35
7264;BME280;3673;52.480;13.348;2022-10-13T00:30:37;101742.75;;;14.07;53.44
7264;BME280;3673;52.480;13.348;2022-10-13T00:33:04;101742.72;;;13.87;53.74
7264;BME280;3673;52.480;13.348;2022-10-13T00:35:32;101743.56;;;13.78;54.38
7264;BME280;3673;52.480;13.348;2022-10-13T00:37:59;101743.59;;;13.86;53.99
7264;BME280;3673;52.480;13.348;2022-10-13T00:40:26;101744.47;;;13.89;54.00
7264;BME280;3673;52.480;13.348;2022-10-13T00:42:52;101741.81;;;13.70;53.99
7264;BME280;3673;52.480;13.348;2022-10-13T00:45:24;101740.06;;;13.79;54.26
7264;BME280;3673;52.480;13.348;2022-10-13T00:47:55;101738.31;;;13.81;54.28
7264;BME280;3673;52.480;13.348;2022-10-13T00:50:27;101736.41;;;13.26;55.15
7264;BME280;3673;52.480;13.348;2022-10-13T00:52:57;101739.91;;;13.20;55.74
7264;BME280;3673;52.480;13.348;2022-10-13T00:55:31;101739.78;;;13.08;56.07
7264;BME280;3673;52.480;13.348;2022-10-13T00:58:00;101733.66;;;13.06;56.17
7264;BME280;3673;52.480;13.348;2022-10-13T01:00:30;101739.97;;;13.40;55.41
7264;BME280;3673;52.480;13.348;2022-10-13T01:02:57;101735.66;;;13.57;54.80
7264;BME280;3673;52.480;13.348;2022-10-13T01:05:24;101740.88;;;13.44;54.93
7264;BME280;3673;52.480;13.348;2022-10-13T01:07:52;101750.44;;;13.26;55.54
7264;BME280;3673;52.480;13.348;2022-10-13T01:10:33;101736.47;;;13.52;55.00
7264;BME280;3673;52.480;13.348;2022-10-13T01:13:11;101731.88;;;12.99;56.18
7264;BME280;3673;52.480;13.348;2022-10-13T01:15:46;101731.09;;;13.18;55.85
7264;BME280;3673;52.480;13.348;2022-10-13T01:18:23;101738.09;;;13.18;55.91
7264;BME280;3673;52.480;13.348;2022-10-13T01:21:07;101724.84;;;12.95;56.33
7264;BME280;3673;52.480;13.348;2022-10-13T01:24:33;101722.19;;;12.89;56.62
7264;BME280;3673;52.480;13.348;2022-10-13T01:27:48;101721.38;;;13.01;56.25
7264;BME280;3673;52.480;13.348;2022-10-13T01:30:19;101731.81;;;12.84;56.64
7264;BME280;3673;52.480;13.348;2022-10-13T01:33:10;101728.34;;;12.96;56.53
7264;BME280;3673;52.480;13.348;2022-10-13T01:36:03;101721.19;;;12.72;57.04
7264;BME280;3673;52.480;13.348;2022-10-13T01:38:36;101715.22;;;12.94;56.45
7264;BME280;3673;52.480;13.348;2022-10-13T01:41:12;101711.69;;;12.89;56.53
7264;BME280;3673;52.480;13.348;2022-10-13T01:43:45;101706.47;;;13.01;56.20
7264;BME280;3673;52.480;13.348;2022-10-13T01:46:18;101717.72;;;12.74;57.19
7264;BME280;3673;52.480;13.348;2022-10-13T01:48:50;101701.19;;;12.98;56.65
7264;BME280;3673;52.480;13.348;2022-10-13T01:51:18;101712.53;;;12.86;56.41
7264;BME280;3673;52.480;13.348;2022-10-13T01:53:47;101702.09;;;13.00;56.31
7264;BME280;3673;52.480;13.348;2022-10-13T01:56:15;101702.03;;;12.88;56.79
7264;BME280;3673;52.480;13.348;2022-10-13T01:58:42;101696.00;;;13.06;56.53
7264;BME280;3673;52.480;13.348;2022-10-13T02:01:28;101692.59;;;13.23;55.96
7264;BME280;3673;52.480;13.348;2022-10-13T02:04:10;101696.88;;;13.08;56.41
7264;BME280;3673;52.480;13.348;2022-10-13T02:06:42;101686.34;;;13.00;56.33
7264;BME280;3673;52.480;13.348;2022-10-13T02:09:17;101688.19;;;13.13;56.15
7264;BME280;3673;52.480;13.348;2022-10-13T02:11:53;101685.44;;;12.97;56.58
7264;BME280;3673;52.480;13.348;2022-10-13T02:14:24;101681.97;;;13.08;56.29
7264;BME280;3673;52.480;13.348;2022-10-13T02:16:55;101677.72;;;13.31;55.98
7264;BME280;3673;52.480;13.348;2022-10-13T02:19:24;101675.97;;;13.38;55.42
7264;BME280;3673;52.480;13.348;2022-10-13T02:21:52;101673.31;;;13.23;55.69
7264;BME280;3673;52.480;13.348;2022-10-13T02:24:18;101680.34;;;13.30;55.76
7264;BME280;3673;52.480;13.348;2022-10-13T02:26:46;101682.13;;;13.34;55.74
7264;BME280;3673;52.480;13.348;2022-10-13T02:29:15;101667.22;;;13.39;55.34
7264;BME280;3673;52.480;13.348;2022-10-13T02:31:45;101674.25;;;13.49;55.21
7264;BME280;3673;52.480;13.348;2022-10-13T02:34:13;101670.75;;;13.36;55.55
7264;BME280;3673;52.480;13.348;2022-10-13T02:36:41;101668.09;;;13.29;55.92
7264;BME280;3673;52.480;13.348;2022-10-13T02:39:09;101667.19;;;13.31;55.62
7264;BME280;3673;52.480;13.348;2022-10-13T02:41:37;101664.59;;;13.39;55.76
7264;BME280;3673;52.480;13.348;2022-10-13T02:44:04;101657.59;;;13.27;55.88
7264;BME280;3673;52.480;13.348;2022-10-13T02:46:31;101662.81;;;13.20;55.95
7264;BME280;3673;52.480;13.348;2022-10-13T02:48:58;101649.69;;;13.26;55.99
7264;BME280;3673;52.480;13.348;2022-10-13T02:51:26;101642.66;;;13.20;55.74
7264;BME280;3673;52.480;13.348;2022-10-13T02:53:52;101645.28;;;13.19;56.28
7264;BME280;3673;52.480;13.348;2022-10-13T02:56:19;101640.88;;;13.13;56.19
7264;BME280;3673;52.480;13.348;2022-10-13T02:58:46;101637.34;;;13.07;56.27
7264;BME280;3673;52.480;13.348;2022-10-13T03:01:14;101645.19;;;13.08;56.36
7264;BME280;3673;52.480;13.348;2022-10-13T03:03:41;101651.31;;;13.00;56.61
7264;BME280;3673;52.480;13.348;2022-10-13T03:06:08;101645.97;;;12.84;57.10
7264;BME280;3673;52.480;13.348;2022-10-13T03:08:36;101645.09;;;12.81;56.82
7264;BME280;3673;52.480;13.348;2022-10-13T03:11:04;101644.25;;;12.88;56.91
7264;BME280;3673;52.480;13.348;2022-10-13T03:13:30;101644.28;;;12.96;56.66
7264;BME280;3673;52.480;13.348;2022-10-13T03:15:58;101647.78;;;12.90;57.07
7264;BME280;3673;52.480;13.348;2022-10-13T03:18:25;101641.66;;;12.93;56.56
7264;BME280;3673;52.480;13.348;2022-10-13T03:20:56;101632.84;;;12.80;57.27
7264;BME280;3673;52.480;13.348;2022-10-13T03:23:24;101635.50;;;12.86;56.83
7264;BME280;3673;52.480;13.348;2022-10-13T03:25:53;101633.72;;;12.77;57.37
7264;BME280;3673;52.480;13.348;2022-10-13T03:28:20;101632.91;;;12.94;56.83
7264;BME280;3673;52.480;13.348;2022-10-13T03:30:47;101632.84;;;12.74;57.10
7264;BME280;3673;52.480;13.348;2022-10-13T03:33:14;101631.94;;;12.72;57.31
7264;BME280;3673;52.480;13.348;2022-10-13T03:35:41;101634.56;;;12.70;57.25
7264;BME280;3673;52.480;13.348;2022-10-13T03:38:07;101634.53;;;12.69;57.69
7264;BME280;3673;52.480;13.348;2022-10-13T03:40:34;101631.13;;;12.86;57.13
7264;BME280;3673;52.480;13.348;2022-10-13T03:43:03;101632.03;;;12.95;56.86
7264;BME280;3673;52.480;13.348;2022-10-13T03:45:29;101621.53;;;12.98;56.67
7264;BME280;3673;52.480;13.348;2022-10-13T03:47:56;101618.00;;;12.91;56.84
7264;BME280;3673;52.480;13.348;2022-10-13T03:50:23;101619.75;;;12.89;56.89
7264;BME280;3673;52.480;13.348;2022-10-13T03:52:50;101618.03;;;12.96;56.71
7264;BME280;3673;52.480;13.348;2022-10-13T03:55:17;101625.84;;;12.85;56.92
7264;BME280;3673;52.480;13.348;2022-10-13T03:57:44;101610.97;;;12.85;56.86
7264;BME280;3673;52.480;13.348;2022-10-13T04:00:14;101617.13;;;12.89;56.78
7264;BME280;3673;52.480;13.348;2022-10-13T04:02:41;101613.63;;;12.98;56.50
7264;BME280;3673;52.480;13.348;2022-10-13T04:05:08;101612.78;;;13.08;56.40
7264;BME280;3673;52.480;13.348;2022-10-13T04:07:35;101615.44;;;13.03;56.36
7264;BME280;3673;52.480;13.348;2022-10-13T04:10:02;101613.69;;;13.04;56.51
7264;BME280;3673;52.480;13.348;2022-10-13T04:12:29;101608.47;;;13.11;56.20
7264;BME280;3673;52.480;13.348;2022-10-13T04:14:56;101611.91;;;13.01;56.48
7264;BME280;3673;52.480;13.348;2022-10-13T04:17:24;101617.03;;;12.68;57.54
7264;BME280;3673;52.480;13.348;2022-10-13T04:19:51;101610.91;;;12.66;57.85
7264;BME280;3673;52.480;13.348;2022-10-13T04:22:18;101607.38;;;12.62;57.74
7264;BME280;3673;52.480;13.348;2022-10-13T04:24:45;101603.88;;;12.60;58.07
7264;BME280;3673;52.480;13.348;2022-10-13T04:27:11;101610.84;;;12.52;58.40
7264;BME280;3673;52.480;13.348;2022-10-13T04:29:41;101609.03;;;12.45;58.78
7264;BME280;3673;52.480;13.348;2022-10-13T04:32:07;101612.59;;;12.53;58.29
7264;BME280;3673;52.480;13.348;2022-10-13T04:34:36;101604.78;;;12.68;58.10
7264;BME280;3673;52.480;13.348;2022-10-13T04:37:02;101594.34;;;12.77;57.92
7264;BME280;3673;52.480;13.348;2022-10-13T04:39:29;101597.88;;;12.84;57.66
7264;BME280;3673;52.480;13.348;2022-10-13T04:41:56;101595.16;;;12.72;58.03
7264;BME280;3673;52.480;13.348;2022-10-13T04:44:23;101596.97;;;12.85;57.63
7264;BME280;3673;52.480;13.348;2022-10-13T04:46:50;101591.75;;;12.99;57.35
7264;BME280;3673;52.480;13.348;2022-10-13T04:49:17;101590.84;;;12.86;57.74
7264;BME280;3673;52.480;13.348;2022-10-13T04:51:45;101589.97;;;12.79;57.63
7264;BME280;3673;52.480;13.348;2022-10-13T04:54:12;101596.97;;;12.82;57.85
7264;BME280;3673;52.480;13.348;2022-10-13T04:56:39;101591.69;;;12.79;58.07
7264;BME280;3673;52.480;13.348;2022-10-13T04:59:05;101593.38;;;12.59;58.60
7264;BME280;3673;52.480;13.348;2022-10-13T05:01:32;101592.47;;;12.55;58.90
7264;BME280;3673;52.480;13.348;2022-10-13T05:04:02;101587.19;;;12.49;58.90
7264;BME280;3673;52.480;13.348;2022-10-13T05:06:32;101580.31;;;12.72;58.08
7264;BME280;3673;52.480;13.348;2022-10-13T05:09:02;101585.47;;;12.56;58.39
7264;BME280;3673;52.480;13.348;2022-10-13T05:11:29;101592.47;;;12.52;59.14
7264;BME280;3673;52.480;13.348;2022-10-13T05:13:57;101592.53;;;12.63;58.94
7264;BME280;3673;52.480;13.348;2022-10-13T05:16:24;101578.47;;;12.58;58.68
7264;BME280;3673;52.480;13.348;2022-10-13T05:18:53;101576.84;;;12.84;58.25
7264;BME280;3673;52.480;13.348;2022-10-13T05:21:22;101576.88;;;12.90;57.96
7264;BME280;3673;52.480;13.348;2022-10-13T05:23:50;101576.03;;;12.97;57.56
7264;BME280;3673;52.480;13.348;2022-10-13T05:26:22;101573.34;;;12.91;57.59
7264;BME280;3673;52.480;13.348;2022-10-13T05:28:52;101569.84;;;12.92;57.95
7264;BME280;3673;52.480;13.348;2022-10-13T05:31:21;101570.75;;;12.99;57.78
7264;BME280;3673;52.480;13.348;2022-10-13T05:33:49;101565.47;;;12.89;57.73
7264;BME280;3673;52.480;13.348;2022-10-13T05:36:18;101571.59;;;12.87;58.09
7264;BME280;3673;52.480;13.348;2022-10-13T05:38:49;101567.25;;;13.06;57.72
7264;BME280;3673;52.480;13.348;2022-10-13T05:41:18;101575.97;;;12.86;57.96
7264;BME280;3673;52.480;13.348;2022-10-13T05:43:46;101575.06;;;12.78;58.32
7264;BME280;3673;52.480;13.348;2022-10-13T05:46:13;101567.25;;;12.90;58.23
7264;BME280;3673;52.480;13.348;2022-10-13T05:48:40;101562.03;;;13.04;57.95
7264;BME280;3673;52.480;13.348;2022-10-13T05:51:16;101564.63;;;13.01;57.80
7264;BME280;3673;52.480;13.348;2022-10-13T05:53:48;101568.97;;;12.98;58.01
7264;BME280;3673;52.480;13.348;2022-10-13T05:56:20;101565.50;;;13.00;57.74
7264;BME280;3673;52.480;13.348;2022-10-13T05:58:53;101577.75;;;12.94;58.33
7264;BME280;3673;52.480;13.348;2022-10-13T06:01:23;101572.47;;;12.92;58.15
7264;BME280;3673;52.480;13.348;2022-10-13T06:03:53;101574.22;;;12.88;58.21
7264;BME280;3673;52.480;13.348;2022-10-13T06:06:24;101578.66;;;13.03;57.99
7264;BME280;3673;52.480;13.348;2022-10-13T06:08:50;101576.84;;;12.82;58.60
7264;BME280;3673;52.480;13.348;2022-10-13T06:11:17;101570.63;;;12.65;59.06
7264;BME280;3673;52.480;13.348;2022-10-13T06:13:44;101567.16;;;12.63;60.91
7264;BME280;3673;52.480;13.348;2022-10-13T06:16:12;101564.59;;;12.86;58.82
7264;BME280;3673;52.480;13.348;2022-10-13T06:18:39;101567.22;;;12.86;58.60
7264;BME280;3673;52.480;13.348;2022-10-13T06:21:06;101566.28;;;12.69;58.62
7264;BME280;3673;52.480;13.348;2022-10-13T06:23:32;101559.31;;;12.75;59.03
7264;BME280;3673;52.480;13.348;2022-10-13T06:25:59;101566.31;;;12.79;58.87
7264;BME280;3673;52.480;13.348;2022-10-13T06:28:26;101568.94;;;12.78;58.66
7264;BME280;3673;52.480;13.348;2022-10-13T06:30:53;101577.56;;;12.51;59.67
7264;BME280;3673;52.480;13.348;2022-10-13T06:33:23;101575.78;;;12.36;60.19
7264;BME280;3673;52.480;13.348;2022-10-13T06:35:50;101587.09;;;12.31;60.20
7264;BME280;3673;52.480;13.348;2022-10-13T06:38:17;101580.13;;;12.34;60.34
7264;BME280;3673;52.480;13.348;2022-10-13T06:40:44;101580.13;;;12.37;60.39
7264;BME280;3673;52.480;13.348;2022-10-13T06:43:11;101584.53;;;12.42;60.40
7264;BME280;3673;52.480;13.348;2022-10-13T06:45:37;101586.25;;;12.33;60.28
7264;BME280;3673;52.480;13.348;2022-10-13T06:48:04;101574.09;;;12.54;59.93
7264;BME280;3673;52.480;13.348;2022-10-13T06:50:32;101575.91;;;12.74;59.32
7264;BME280;3673;52.480;13.348;2022-10-13T06:52:59;101575.09;;;12.86;59.01
7264;BME280;3673;52.480;13.348;2022-10-13T06:55:26;101581.97;;;12.58;59.78
7264;BME280;3673;52.480;13.348;2022-10-13T06:57:53;101572.44;;;12.71;59.74
7264;BME280;3673;52.480;13.348;2022-10-13T07:00:20;101568.09;;;12.89;58.97
7264;BME280;3673;52.480;13.348;2022-10-13T07:02:49;101569.84;;;12.89;59.05
7264;BME280;3673;52.480;13.348;2022-10-13T07:05:16;101548.00;;;13.07;58.53
7264;BME280;3673;52.480;13.348;2022-10-13T07:07:44;101548.91;;;13.12;58.42
7264;BME280;3673;52.480;13.348;2022-10-13T07:10:11;101561.19;;;13.10;58.37
7264;BME280;3673;52.480;13.348;2022-10-13T07:12:38;101569.97;;;13.31;58.17
7264;BME280;3673;52.480;13.348;2022-10-13T07:15:07;101571.72;;;13.38;57.99
7264;BME280;3673;52.480;13.348;2022-10-13T07:17:34;101565.59;;;13.43;57.93
7264;BME280;3673;52.480;13.348;2022-10-13T07:20:00;101562.09;;;13.63;57.51
7264;BME280;3673;52.480;13.348;2022-10-13T07:22:28;101562.13;;;13.71;57.48
7264;BME280;3673;52.480;13.348;2022-10-13T07:24:57;101553.31;;;13.78;57.17
7264;BME280;3673;52.480;13.348;2022-10-13T07:27:24;101553.34;;;13.57;57.89
7264;BME280;3673;52.480;13.348;2022-10-13T07:29:51;101555.06;;;13.58;57.93
7264;BME280;3673;52.480;13.348;2022-10-13T07:32:17;101551.56;;;13.80;57.64
7264;BME280;3673;52.480;13.348;2022-10-13T07:34:44;101555.09;;;13.83;57.56
7264;BME280;3673;52.480;13.348;2022-10-13T07:37:11;101547.16;;;13.91;57.68
7264;BME280;3673;52.480;13.348;2022-10-13T07:39:37;101544.56;;;13.94;57.34
7264;BME280;3673;52.480;13.348;2022-10-13T07:42:05;101550.69;;;13.84;57.88
7264;BME280;3673;52.480;13.348;2022-10-13T07:44:32;101534.91;;;13.98;57.93
7264;BME280;3673;52.480;13.348;2022-10-13T07:46:59;101537.50;;;14.07;57.47
7264;BME280;3673;52.480;13.348;2022-10-13T07:49:26;101541.84;;;14.18;57.31
7264;BME280;3673;52.480;13.348;2022-10-13T07:51:52;101529.53;;;14.40;57.24
7264;BME280;3673;52.480;13.348;2022-10-13T07:54:19;101539.16;;;14.50;56.95
7264;BME280;3673;52.480;13.348;2022-10-13T07:56:46;101536.47;;;14.59;56.76
7264;BME280;3673;52.480;13.348;2022-10-13T07:59:17;101535.59;;;14.56;57.21
7264;BME280;3673;52.480;13.348;2022-10-13T08:01:44;101539.06;;;14.67;56.83
7264;BME280;3673;52.480;13.348;2022-10-13T08:04:11;101534.69;;;14.58;57.95
7264;BME280;3673;52.480;13.348;2022-10-13T08:06:38;101534.63;;;14.73;57.18
7264;BME280;3673;52.480;13.348;2022-10-13T08:09:05;101531.97;;;14.79;57.18
7264;BME280;3673;52.480;13.348;2022-10-13T08:11:32;101529.16;;;15.05;56.47
7264;BME280;3673;52.480;13.348;2022-10-13T08:13:58;101533.31;;;15.38;55.82
7264;BME280;3673;52.480;13.348;2022-10-13T08:16:27;101522.28;;;14.87;56.92
7264;BME280;3673;52.480;13.348;2022-10-13T08:18:56;101521.16;;;15.23;56.23
7264;BME280;3673;52.480;13.348;2022-10-13T08:21:23;101532.31;;;15.57;55.47
7264;BME280;3673;52.480;13.348;2022-10-13T08:23:50;101522.59;;;15.64;55.45
7264;BME280;3673;52.480;13.348;2022-10-13T08:26:19;101521.47;;;15.90;54.45
7264;BME280;3673;52.480;13.348;2022-10-13T08:28:48;101517.06;;;15.91;54.54
7264;BME280;3673;52.480;13.348;2022-10-13T08:31:15;101513.31;;;16.10;54.32
7264;BME280;3673;52.480;13.348;2022-10-13T08:33:43;101512.78;;;16.56;53.49
7264;BME280;3673;52.480;13.348;2022-10-13T08:36:12;101506.53;;;16.63;53.10
7264;BME280;3673;52.480;13.348;2022-10-13T08:38:39;101506.66;;;16.51;53.42
7264;BME280;3673;52.480;13.348;2022-10-13T08:41:15;101504.25;;;16.34;53.35
7264;BME280;3673;52.480;13.348;2022-10-13T08:43:48;101501.38;;;16.51;53.29
7264;BME280;3673;52.480;13.348;2022-10-13T08:46:21;101513.53;;;15.89;54.81
7264;BME280;3673;52.480;13.348;2022-10-13T08:48:52;101507.13;;;16.14;54.53
7264;BME280;3673;52.480;13.348;2022-10-13T08:51:19;101505.00;;;16.42;53.70
7264;BME280;3673;52.480;13.348;2022-10-13T08:53:48;101506.63;;;16.57;53.55
7264;BME280;3673;52.480;13.348;2022-10-13T08:56:18;101496.69;;;16.74;53.38
7264;BME280;3673;52.480;13.348;2022-10-13T08:58:47;101506.06;;;16.96;52.49
7264;BME280;3673;52.480;13.348;2022-10-13T09:01:19;101495.56;;;16.90;52.63
7264;BME280;3673;52.480;13.348;2022-10-13T09:03:54;101486.50;;;17.06;52.24
7264;BME280;3673;52.480;13.348;2022-10-13T09:06:24;101486.56;;;17.02;52.54
7264;BME280;3673;52.480;13.348;2022-10-13T09:08:56;101487.34;;;17.08;52.41
7264;BME280;3673;52.480;13.348;2022-10-13T09:11:26;101482.44;;;17.40;52.11
7264;BME280;3673;52.480;13.348;2022-10-13T09:13:56;101484.34;;;17.31;52.65
7264;BME280;3673;52.480;13.348;2022-10-13T09:16:29;101483.19;;;17.45;52.24
7264;BME280;3673;52.480;13.348;2022-10-13T09:19:14;101489.03;;;17.14;53.03
7264;BME280;3673;52.480;13.348;2022-10-13T09:21:41;101488.56;;;17.42;52.80
7264;BME280;3673;52.480;13.348;2022-10-13T09:24:14;101479.94;;;17.30;53.22
7264;BME280;3673;52.480;13.348;2022-10-13T09:26:43;101478.59;;;17.60;52.40
7264;BME280;3673;52.480;13.348;2022-10-13T09:29:16;101470.47;;;17.70;52.19
7264;BME280;3673;52.480;13.348;2022-10-13T09:31:43;101489.84;;;17.71;52.63
7264;BME280;3673;52.480;13.348;2022-10-13T09:34:21;101490.91;;;17.61;52.64
7264;BME280;3673;52.480;13.348;2022-10-13T09:36:57;101486.84;;;17.40;53.47
7264;BME280;3673;52.480;13.348;2022-10-13T09:39:25;101495.22;;;17.66;53.00
7264;BME280;3673;52.480;13.348;2022-10-13T09:41:52;101486.41;;;17.67;53.09
7264;BME280;3673;52.480;13.348;2022-10-13T09:44:39;101484.41;;;18.23;51.76
7264;BME280;3673;52.480;13.348;2022-10-13T09:47:17;101481.69;;;18.26;51.69
7264;BME280;3673;52.480;13.348;2022-10-13T09:49:59;101484.50;;;18.18;51.79
7264;BME280;3673;52.480;13.348;2022-10-13T09:52:27;101483.91;;;18.47;51.23
7264;BME280;3673;52.480;13.348;2022-10-13T09:54:57;101484.84;;;18.44;51.14
7264;BME280;3673;52.480;13.348;2022-10-13T09:57:35;101488.22;;;18.52;51.04
7264;BME280;3673;52.480;13.348;2022-10-13T10:00:23;101483.13;;;18.83;50.38
7264;BME280;3673;52.480;13.348;2022-10-13T10:02:55;101484.53;;;18.61;50.97
7264;BME280;3673;52.480;13.348;2022-10-13T10:05:27;101481.97;;;18.55;51.44
7264;BME280;3673;52.480;13.348;2022-10-13T10:08:10;101474.34;;;18.81;51.11
7264;BME280;3673;52.480;13.348;2022-10-13T10:10:40;101484.19;;;19.13;50.45
7264;BME280;3673;52.480;13.348;2022-10-13T10:13:10;101475.00;;;19.26;50.23
7264;BME280;3673;52.480;13.348;2022-10-13T10:15:48;101480.06;;;19.37;49.72
7264;BME280;3673;52.480;13.348;2022-10-13T10:18:19;101470.47;;;19.31;50.09
7264;BME280;3673;52.480;13.348;2022-10-13T10:21:01;101467.53;;;19.43;49.92
7264;BME280;3673;52.480;13.348;2022-10-13T10:23:41;101466.56;;;19.46;50.04
7264;BME280;3673;52.480;13.348;2022-10-13T10:26:15;101464.63;;;19.85;49.30
7264;BME280;3673;52.480;13.348;2022-10-13T10:29:18;101458.53;;;19.49;49.90
7264;BME280;3673;52.480;13.348;2022-10-13T10:31:57;101452.81;;;19.64;49.66
7264;BME280;3673;52.480;13.348;2022-10-13T10:34:36;101448.69;;;19.85;49.04
7264;BME280;3673;52.480;13.348;2022-10-13T10:37:27;101451.13;;;19.92;49.48
7264;BME280;3673;52.480;13.348;2022-10-13T10:40:11;101449.03;;;19.73;49.87
7264;BME280;3673;52.480;13.348;2022-10-13T10:43:01;101446.09;;;19.83;49.38
7264;BME280;3673;52.480;13.348;2022-10-13T10:45:35;101433.44;;;20.22;48.88
7264;BME280;3673;52.480;13.348;2022-10-13T10:48:11;101431.59;;;20.55;48.19
7264;BME280;3673;52.480;13.348;2022-10-13T10:50:42;101433.97;;;20.64;47.76
7264;BME280;3673;52.480;13.348;2022-10-13T10:53:18;101426.38;;;20.80;47.40
7264;BME280;3673;52.480;13.348;2022-10-13T10:55:52;101421.28;;;19.84;49.52
7264;BME280;3673;52.480;13.348;2022-10-13T10:58:28;101418.28;;;19.96;49.34
7264;BME280;3673;52.480;13.348;2022-10-13T11:01:05;101412.94;;;20.57;48.09
7264;BME280;3673;52.480;13.348;2022-10-13T11:03:40;101424.84;;;20.99;47.36
7264;BME280;3673;52.480;13.348;2022-10-13T11:06:32;101412.97;;;21.11;47.25
7264;BME280;3673;52.480;13.348;2022-10-13T11:09:05;101403.28;;;21.08;47.16
7264;BME280;3673;52.480;13.348;2022-10-13T11:11:39;101410.97;;;21.42;46.75
7264;BME280;3673;52.480;13.348;2022-10-13T11:14:29;101397.75;;;21.88;45.25
7264;BME280;3673;52.480;13.348;2022-10-13T11:17:26;101401.00;;;22.21;44.41
7264;BME280;3673;52.480;13.348;2022-10-13T11:19:54;101390.78;;;22.09;44.42
7264;BME280;3673;52.480;13.348;2022-10-13T11:22:24;101406.19;;;21.76;45.14
7264;BME280;3673;52.480;13.348;2022-10-13T11:25:07;101396.38;;;21.78;45.20
7264;BME280;3673;52.480;13.348;2022-10-13T11:27:48;101396.44;;;22.01;45.03
7264;BME280;3673;52.480;13.348;2022-10-13T11:30:40;101403.06;;;21.88;44.84
7264;BME280;3673;52.480;13.348;2022-10-13T11:33:35;101394.22;;;21.65;45.42
7264;BME280;3673;52.480;13.348;2022-10-13T11:36:44;101390.91;;;21.58;45.43
7264;BME280;3673;52.480;13.348;2022-10-13T11:43:02;101389.69;;;21.17;46.62
7264;BME280;3673;52.480;13.348;2022-10-13T11:45:55;101379.59;;;21.00;46.90
7264;BME280;3673;52.480;13.348;2022-10-13T11:49:19;101364.78;;;21.44;46.01
7264;BME280;3673;52.480;13.348;2022-10-13T11:52:38;101355.34;;;21.59;45.68
7264;BME280;3673;52.480;13.348;2022-10-13T11:55:13;101350.91;;;21.83;45.19
7264;BME280;3673;52.480;13.348;2022-10-13T11:57:42;101355.56;;;21.53;45.59
7264;BME280;3673;52.480;13.348;2022-10-13T12:00:15;101349.44;;;21.26;45.84
7264;BME280;3673;52.480;13.348;2022-10-13T12:02:50;101352.72;;;20.82;46.84
7264;BME280;3673;52.480;13.348;2022-10-13T12:05:23;101348.66;;;21.23;46.08
7264;BME280;3673;52.480;13.348;2022-10-13T12:07:52;101337.00;;;21.27;45.72
7264;BME280;3673;52.480;13.348;2022-10-13T12:10:24;101343.88;;;21.57;44.91
7264;BME280;3673;52.480;13.348;2022-10-13T12:12:56;101335.13;;;21.53;44.38
7264;BME280;3673;52.480;13.348;2022-10-13T12:15:33;101331.25;;;21.62;43.91
7264;BME280;3673;52.480;13.348;2022-10-13T12:18:01;101342.13;;;21.81;43.60
7264;BME280;3673;52.480;13.348;2022-10-13T12:20:30;101333.22;;;22.27;42.71
7264;BME280;3673;52.480;13.348;2022-10-13T12:22:57;101343.72;;;22.31;42.47
7264;BME280;3673;52.480;13.348;2022-10-13T12:25:27;101350.53;;;21.93;43.18
7264;BME280;3673;52.480;13.348;2022-10-13T12:27:57;101344.97;;;21.99;42.59
7264;BME280;3673;52.480;13.348;2022-10-13T12:30:27;101341.78;;;22.13;41.76
7264;BME280;3673;52.480;13.348;2022-10-13T12:32:58;101336.38;;;21.68;42.60
7264;BME280;3673;52.480;13.348;2022-10-13T12:35:28;101332.31;;;21.58;42.57
7264;BME280;3673;52.480;13.348;2022-10-13T12:37:56;101330.50;;;21.82;42.37
7264;BME280;3673;52.480;13.348;2022-10-13T12:40:24;101334.13;;;21.81;41.88
7264;BME280;3673;52.480;13.348;2022-10-13T12:42:51;101344.53;;;21.64;42.45
7264;BME280;3673;52.480;13.348;2022-10-13T12:45:23;101335.03;;;21.56;41.87
7264;BME280;3673;52.480;13.348;2022-10-13T12:47:53;101341.38;;;21.52;41.89
7264;BME280;3673;52.480;13.348;2022-10-13T12:50:33;101340.53;;;21.27;42.68
7264;BME280;3673;52.480;13.348;2022-10-13T12:53:11;101341.72;;;21.68;41.76
7264;BME280;3673;52.480;13.348;2022-10-13T12:55:50;101347.44;;;21.33;42.33
7264;BME280;3673;52.480;13.348;2022-10-13T12:58:23;101343.59;;;20.63;43.59
7264;BME280;3673;52.480;13.348;2022-10-13T13:01:02;101346.53;;;20.81;43.65
7264;BME280;3673;52.480;13.348;2022-10-13T13:03:32;101336.84;;;21.05;43.29
7264;BME280;3673;52.480;13.348;2022-10-13T13:06:19;101348.47;;;21.02;43.44
7264;BME280;3673;52.480;13.348;2022-10-13T13:12:00;101337.72;;;21.05;43.25
7264;BME280;3673;52.480;13.348;2022-10-13T13:14:37;101348.31;;;21.33;42.68
7264;BME280;3673;52.480;13.348;2022-10-13T13:17:11;101337.78;;;20.78;43.70
7264;BME280;3673;52.480;13.348;2022-10-13T13:19:46;101350.22;;;21.03;43.29
7264;BME280;3673;52.480;13.348;2022-10-13T13:22:15;101344.91;;;21.28;42.68
7264;BME280;3673;52.480;13.348;2022-10-13T13:24:43;101347.47;;;21.05;43.42
7264;BME280;3673;52.480;13.348;2022-10-13T13:27:16;101330.59;;;21.06;43.49
7264;BME280;3673;52.480;13.348;2022-10-13T13:29:44;101334.72;;;20.90;43.94